createdAt,value
2019-04-26T00:00:15.894Z,74.17
2019-04-26T00:02:59.934Z,76.62
2019-04-26T00:05:34.806Z,73.15
2019-04-26T00:08:05.195Z,80.27
2019-04-26T00:10:39.619Z,76.53
2019-04-26T00:13:16.350Z,74.72
2019-04-26T00:16:06.384Z,69.10
2019-04-26T00:18:39.538Z,75.32
2019-04-26T00:21:11.739Z,78.80
2019-04-26T00:23:44.942Z,82.67
2019-04-26T00:26:17.666Z,72.72
2019-04-26T00:28:49.587Z,85.10
2019-04-26T00:31:21.971Z,87.82
2019-04-26T00:33:53.926Z,84.07
2019-04-26T00:36:25.690Z,87.80
2019-04-26T00:38:57.747Z,88.47
2019-04-26T00:41:29.853Z,86.22
2019-04-26T00:44:02.398Z,76.72
2019-04-26T00:46:36.903Z,74.03
2019-04-26T00:49:10.795Z,73.85
2019-04-26T00:51:42.698Z,71.57
2019-04-26T00:54:15.500Z,74.70
2019-04-26T00:56:47.678Z,76.53
2019-04-26T00:59:20.538Z,76.00
2019-04-26T01:01:57.618Z,69.40
2019-04-26T01:04:32.805Z,76.22
2019-04-26T01:07:02.781Z,76.43
2019-04-26T01:09:34.775Z,69.47
2019-04-26T01:12:06.813Z,72.67
2019-04-26T01:14:38.776Z,68.78
2019-04-26T01:17:11.662Z,72.78
2019-04-26T01:19:45.351Z,71.97
2019-04-26T01:22:19.880Z,69.67
2019-04-26T01:24:54.316Z,68.80
2019-04-26T01:27:27.884Z,68.67
2019-04-26T01:30:02.951Z,70.65
2019-04-26T01:32:37.477Z,69.15
2019-04-26T01:35:09.326Z,68.00
2019-04-26T01:37:44.908Z,73.30
2019-04-26T01:40:18.193Z,73.72
2019-04-26T01:43:00.788Z,72.82
2019-04-26T01:45:37.293Z,78.52
2019-04-26T01:48:33.287Z,71.25
2019-04-26T01:51:06.402Z,74.20
2019-04-26T01:53:38.444Z,76.90
2019-04-26T01:56:10.508Z,71.00
2019-04-26T01:58:43.102Z,67.47
2019-04-26T02:01:25.622Z,75.67
2019-04-26T02:03:58.761Z,73.30
2019-04-26T02:06:33.307Z,71.17
2019-04-26T02:09:05.588Z,70.92
2019-04-26T02:11:38.106Z,73.70
2019-04-26T02:14:09.850Z,69.72
2019-04-26T02:16:42.308Z,72.45
2019-04-26T02:19:14.587Z,74.00
2019-04-26T02:22:00.481Z,67.90
2019-04-26T02:24:36.439Z,69.87
2019-04-26T02:27:09.617Z,77.82
2019-04-26T02:32:13.773Z,65.25
2019-04-26T02:34:45.715Z,67.25
2019-04-26T02:37:17.782Z,75.78
2019-04-26T02:39:50.294Z,81.45
2019-04-26T02:42:30.181Z,85.85
2019-04-26T02:45:21.949Z,80.92
2019-04-26T02:48:14.523Z,66.22
2019-04-26T02:50:59.488Z,69.55
2019-04-26T02:53:35.328Z,67.00
2019-04-26T02:56:30.325Z,68.42
2019-04-26T02:59:05.068Z,66.20
2019-04-26T03:01:38.708Z,69.35
2019-04-26T03:04:10.512Z,71.82
2019-04-26T03:07:01.856Z,65.17
2019-04-26T03:09:19.690Z,64.15
2019-04-26T03:12:06.175Z,70.10
2019-04-26T03:14:42.098Z,69.40
2019-04-26T03:17:19.756Z,65.45
2019-04-26T03:20:05.445Z,66.95
2019-04-26T03:22:55.400Z,69.03
2019-04-26T03:25:32.681Z,65.25
2019-04-26T03:28:07.112Z,71.90
2019-04-26T03:30:48.698Z,69.10
2019-04-26T03:33:42.081Z,66.25
2019-04-26T03:36:21.937Z,65.47
2019-04-26T03:39:04.443Z,64.82
2019-04-26T03:41:44.472Z,63.78
2019-04-26T03:44:31.249Z,70.55
2019-04-26T03:47:05.922Z,58.78
2019-04-26T03:50:08.409Z,60.78
2019-04-26T03:53:01.068Z,64.30
2019-04-26T03:55:38.261Z,63.30
2019-04-26T03:58:21.692Z,66.05
2019-04-26T04:01:03.370Z,63.20
2019-04-26T04:03:46.184Z,66.55
2019-04-26T04:06:23.556Z,65.65
2019-04-26T04:09:04.986Z,60.75
2019-04-26T04:11:51.197Z,57.60
2019-04-26T04:14:37.678Z,59.90
2019-04-26T04:17:16.935Z,63.17
2019-04-26T04:20:14.411Z,63.33
2019-04-26T04:23:16.991Z,62.67
2019-04-26T04:25:51.677Z,63.70
2019-04-26T04:28:35.336Z,59.10
2019-04-26T04:31:21.847Z,64.72
2019-04-26T04:34:21.269Z,56.80
2019-04-26T04:36:56.488Z,61.10
2019-04-26T04:39:42.056Z,57.05
2019-04-26T04:42:26.724Z,56.63
2019-04-26T04:45:11.910Z,57.53
2019-04-26T04:48:22.192Z,64.47
2019-04-26T04:51:26.190Z,58.40
2019-04-26T04:54:01.269Z,57.98
2019-04-26T04:56:47.811Z,61.35
2019-04-26T04:59:34.798Z,53.78
2019-04-26T05:02:51.041Z,51.13
2019-04-26T05:05:39.710Z,53.23
2019-04-26T05:08:34.407Z,50.58
2019-04-26T05:13:45.219Z,54.00
2019-04-26T05:16:41.428Z,55.83
2019-04-26T05:19:48.905Z,57.80
2019-04-26T05:22:55.493Z,58.20
2019-04-26T05:26:05.117Z,57.67
2019-04-26T05:28:50.094Z,60.75
2019-04-26T05:31:36.791Z,57.62
2019-04-26T05:34:24.856Z,55.35
2019-04-26T05:36:59.901Z,65.72
2019-04-26T05:39:49.212Z,59.60
2019-04-26T05:43:03.726Z,59.85
2019-04-26T05:46:10.414Z,56.40
2019-04-26T05:49:02.174Z,58.45
2019-04-26T05:51:59.287Z,51.13
2019-04-26T05:54:59.597Z,53.25
2019-04-26T05:57:58.717Z,53.08
2019-04-26T06:00:59.753Z,52.73
2019-04-26T06:03:44.841Z,50.43
2019-04-26T06:06:36.466Z,56.58
2019-04-26T06:09:31.325Z,51.10
2019-04-26T06:12:07.814Z,44.63
2019-04-26T06:14:59.036Z,45.78
2019-04-26T06:17:47.299Z,45.55
2019-04-26T06:20:23.610Z,45.52
2019-04-26T06:22:59.704Z,45.28
2019-04-26T06:25:55.683Z,41.23
2019-04-26T06:28:44.912Z,44.50
2019-04-26T06:31:22.388Z,43.42
2019-04-26T06:34:03.378Z,39.55
2019-04-26T06:36:39.746Z,39.18
2019-04-26T06:39:21.234Z,38.50
2019-04-26T06:42:23.012Z,38.33
2019-04-26T06:45:18.842Z,33.48
2019-04-26T06:48:32.462Z,33.40
2019-04-26T06:51:24.130Z,31.35
2019-04-26T06:53:58.923Z,25.77
2019-04-26T06:56:47.256Z,28.75
2019-04-26T06:59:22.019Z,25.40
2019-04-26T07:01:59.492Z,25.77
2019-04-26T07:05:04.769Z,22.52
2019-04-26T07:10:46.301Z,23.27
2019-04-26T07:13:45.229Z,24.35
2019-04-26T07:16:29.580Z,25.00
2019-04-26T07:22:34.759Z,24.47
2019-04-26T07:27:39.840Z,21.93
2019-04-26T07:30:21.883Z,21.33
2019-04-26T07:32:59.859Z,21.62
2019-04-26T07:35:36.029Z,18.48
2019-04-26T07:38:16.459Z,20.68
2019-04-26T07:41:22.821Z,21.20
2019-04-26T07:44:11.843Z,18.75
2019-04-26T07:47:08.511Z,21.57
2019-04-26T07:49:59.933Z,20.48
2019-04-26T07:52:34.768Z,21.42
2019-04-26T07:55:34.171Z,22.48
2019-04-26T07:58:27.484Z,23.20
2019-04-26T08:01:16.010Z,21.33
2019-04-26T08:04:05.307Z,23.30
2019-04-26T08:06:40.219Z,19.00
2019-04-26T08:09:26.208Z,20.55
2019-04-26T08:11:53.059Z,25.75
2019-04-26T08:14:50.778Z,22.67
2019-04-26T08:17:36.509Z,20.55
2019-04-26T08:20:18.908Z,27.17
2019-04-26T08:22:53.723Z,27.35
2019-04-26T08:25:28.561Z,21.80
2019-04-26T08:28:03.557Z,20.80
2019-04-26T08:30:40.557Z,25.08
2019-04-26T08:33:14.791Z,22.48
2019-04-26T08:35:53.239Z,21.93
2019-04-26T08:38:24.987Z,24.02
2019-04-26T08:41:00.378Z,26.27
2019-04-26T08:43:43.868Z,22.93
2019-04-26T08:49:13.222Z,21.45
2019-04-26T08:51:46.911Z,23.62
2019-04-26T08:54:21.939Z,22.00
2019-04-26T08:56:56.872Z,23.40
2019-04-26T08:59:46.430Z,23.95
2019-04-26T09:02:34.696Z,23.73
2019-04-26T09:05:13.925Z,23.27
2019-04-26T09:07:49.043Z,21.50
2019-04-26T09:10:23.692Z,24.43
2019-04-26T09:12:57.968Z,22.50
2019-04-26T09:15:40.621Z,22.07
2019-04-26T09:18:12.791Z,26.23
2019-04-26T09:20:44.845Z,27.20
2019-04-26T09:23:40.374Z,21.27
2019-04-26T09:26:12.498Z,27.37
2019-04-26T09:28:57.647Z,22.30
2019-04-26T09:31:37.241Z,25.90
2019-04-26T09:34:11.489Z,25.23
2019-04-26T09:36:44.050Z,24.70
2019-04-26T09:39:16.432Z,25.82
2019-04-26T09:41:48.682Z,25.12
2019-04-26T09:44:24.838Z,23.35
2019-04-26T09:47:07.577Z,23.22
2019-04-26T09:49:47.250Z,22.00
2019-04-26T09:52:20.520Z,25.97
2019-04-26T09:54:52.477Z,21.15
2019-04-26T09:57:24.651Z,25.50
2019-04-26T09:59:57.126Z,30.10
2019-04-26T10:02:33.742Z,24.82
2019-04-26T10:05:08.060Z,25.37
2019-04-26T10:07:39.876Z,25.80
2019-04-26T10:10:22.384Z,24.60
2019-04-26T10:12:50.258Z,26.02
2019-04-26T10:15:28.075Z,26.12
2019-04-26T10:18:00.532Z,27.20
2019-04-26T10:20:32.600Z,26.87
2019-04-26T10:23:05.162Z,22.32
2019-04-26T10:25:36.816Z,22.13
2019-04-26T10:28:11.843Z,23.22
2019-04-26T10:33:15.084Z,24.45
2019-04-26T10:35:47.395Z,24.92
2019-04-26T10:38:19.438Z,26.50
2019-04-26T10:40:52.505Z,29.15
2019-04-26T10:43:24.273Z,25.62
2019-04-26T10:45:56.136Z,25.52
2019-04-26T10:48:28.436Z,29.92
2019-04-26T10:51:03.391Z,25.62
2019-04-26T10:53:40.931Z,28.67
2019-04-26T10:56:23.819Z,25.92
2019-04-26T10:58:58.272Z,29.45
2019-04-26T11:01:32.880Z,27.50
2019-04-26T11:04:05.467Z,29.15
2019-04-26T11:06:37.437Z,25.40
2019-04-26T11:09:10.415Z,25.15
2019-04-26T11:11:42.067Z,24.18
2019-04-26T11:14:13.839Z,22.85
2019-04-26T11:16:46.216Z,26.55
2019-04-26T11:19:17.859Z,21.70
2019-04-26T11:21:51.024Z,22.55
2019-04-26T11:24:23.238Z,25.40
2019-04-26T11:26:55.410Z,25.23
2019-04-26T11:29:28.756Z,21.00
2019-04-26T11:32:02.643Z,22.35
2019-04-26T11:34:34.287Z,23.85
2019-04-26T11:37:06.951Z,25.05
2019-04-26T11:39:40.466Z,22.27
2019-04-26T11:42:13.233Z,19.62
2019-04-26T11:44:45.518Z,22.25
2019-04-26T11:47:17.584Z,25.00
2019-04-26T11:49:50.122Z,25.12
2019-04-26T11:52:21.953Z,24.57
2019-04-26T11:54:55.195Z,18.50
2019-04-26T11:57:27.794Z,20.70
2019-04-26T12:00:01.328Z,21.65
2019-04-26T12:02:34.777Z,23.55
2019-04-26T12:05:11.356Z,19.73
2019-04-26T12:07:57.359Z,25.08
2019-04-26T12:10:29.838Z,18.95
2019-04-26T12:13:05.924Z,24.70
2019-04-26T12:15:39.143Z,18.80
2019-04-26T12:18:09.686Z,19.23
2019-04-26T12:20:42.594Z,18.55
2019-04-26T12:23:20.804Z,20.00
2019-04-26T12:25:48.258Z,26.85
2019-04-26T12:28:20.348Z,17.50
2019-04-26T12:30:54.177Z,17.95
2019-04-26T12:35:57.392Z,23.50
2019-04-26T12:38:30.100Z,18.62
2019-04-26T12:41:01.811Z,22.58
2019-04-26T12:43:33.864Z,19.67
2019-04-26T12:46:27.103Z,21.25
2019-04-26T12:48:58.191Z,17.42
2019-04-26T12:51:29.831Z,19.40
2019-04-26T12:54:03.712Z,28.70
2019-04-26T12:56:35.308Z,19.27
2019-04-26T12:59:07.502Z,19.23
2019-04-26T13:01:42.710Z,18.23
2019-04-26T13:04:12.754Z,22.20
2019-04-26T13:06:52.168Z,17.07
2019-04-26T13:09:26.634Z,16.80
2019-04-26T13:12:14.538Z,18.77
2019-04-26T13:14:54.090Z,21.42
2019-04-26T13:17:35.739Z,17.95
2019-04-26T13:20:08.555Z,22.48
2019-04-26T13:22:46.310Z,18.60
2019-04-26T13:25:20.114Z,18.35
2019-04-26T13:27:47.948Z,19.20
2019-04-26T13:30:32.283Z,20.27
2019-04-26T13:35:25.976Z,25.02
2019-04-26T13:37:57.947Z,23.70
2019-04-26T13:40:30.574Z,27.02
2019-04-26T13:43:02.596Z,20.95
2019-04-26T13:45:55.268Z,21.77
2019-04-26T13:48:43.713Z,16.95
2019-04-26T13:51:25.199Z,20.02
2019-04-26T13:53:57.162Z,21.30
2019-04-26T13:56:32.011Z,24.37
2019-04-26T14:12:18.696Z,24.92
2019-04-26T14:14:48.243Z,16.48
2019-04-26T14:17:20.311Z,22.48
2019-04-26T14:19:52.014Z,18.62
2019-04-26T14:22:25.453Z,20.57
2019-04-26T14:25:01.828Z,21.52
2019-04-26T14:27:38.210Z,34.00
2019-04-26T14:30:10.462Z,24.98
2019-04-26T14:32:43.268Z,21.97
2019-04-26T14:35:17.132Z,18.02
2019-04-26T14:37:49.781Z,21.30
2019-04-26T14:40:21.963Z,22.98
2019-04-26T14:43:05.993Z,18.12
2019-04-26T14:45:27.114Z,17.87
2019-04-26T14:48:00.213Z,19.12
2019-04-26T14:50:33.547Z,19.17
2019-04-26T14:53:05.434Z,22.05
2019-04-26T14:55:37.193Z,17.48
2019-04-26T14:58:09.174Z,18.05
2019-04-26T15:00:43.851Z,23.52
2019-04-26T15:03:20.807Z,14.18
2019-04-26T15:05:55.213Z,15.88
2019-04-26T15:08:27.268Z,16.65
2019-04-26T15:11:01.284Z,19.90
2019-04-26T15:13:36.301Z,18.75
2019-04-26T15:16:10.485Z,19.35
2019-04-26T15:21:10.491Z,14.90
2019-04-26T15:23:42.253Z,18.98
2019-04-26T15:26:14.305Z,23.62
2019-04-26T15:28:50.544Z,18.82
2019-04-26T15:31:21.593Z,15.88
2019-04-26T15:33:53.066Z,18.50
2019-04-26T15:36:25.133Z,17.40
2019-04-26T15:38:57.425Z,20.17
2019-04-26T15:41:30.616Z,20.30
2019-04-26T15:44:03.915Z,24.02
2019-04-26T15:46:53.883Z,20.08
2019-04-26T15:49:43.896Z,20.25
2019-04-26T15:52:15.977Z,21.50
2019-04-26T15:54:47.619Z,25.80
2019-04-26T15:57:19.901Z,20.62
2019-04-26T15:59:54.354Z,21.05
2019-04-26T16:02:26.346Z,18.98
2019-04-26T16:04:58.349Z,20.00
2019-04-26T16:07:30.089Z,21.40
2019-04-26T16:10:02.177Z,21.35
2019-04-26T16:12:34.146Z,21.60
2019-04-26T16:15:11.441Z,24.40
2019-04-26T16:17:41.303Z,23.55
2019-04-26T16:20:13.633Z,24.07
2019-04-26T16:22:49.094Z,22.50
2019-04-26T16:25:20.202Z,24.43
2019-04-26T16:27:53.422Z,27.25
2019-04-26T16:30:28.454Z,25.25
2019-04-26T16:33:13.811Z,27.77
2019-04-26T16:35:45.602Z,22.15
2019-04-26T16:38:34.378Z,28.35
2019-04-26T16:41:07.469Z,25.95
2019-04-26T16:43:44.613Z,30.27
2019-04-26T16:46:20.229Z,32.35
2019-04-26T16:48:46.182Z,28.75
2019-04-26T16:51:18.147Z,32.88
2019-04-26T16:54:03.588Z,29.42
2019-04-26T16:56:26.675Z,34.88
2019-04-26T16:58:56.825Z,38.88
2019-04-26T17:01:28.877Z,34.38
2019-04-26T17:04:00.806Z,39.15
2019-04-26T17:06:32.809Z,35.83
2019-04-26T17:09:07.148Z,33.08
2019-04-26T17:11:41.387Z,37.80
2019-04-26T17:14:13.281Z,35.52
2019-04-26T17:16:44.976Z,36.77
2019-04-26T17:19:19.738Z,35.52
2019-04-26T17:21:52.460Z,34.10
2019-04-26T17:24:28.553Z,38.25
2019-04-26T17:27:05.468Z,34.50
2019-04-26T17:29:35.786Z,37.05
2019-04-26T17:32:09.116Z,34.33
2019-04-26T17:34:43.368Z,34.65
2019-04-26T17:37:17.405Z,43.00
2019-04-26T17:39:52.163Z,34.48
2019-04-26T17:42:25.186Z,32.67
2019-04-26T17:44:57.650Z,33.15
2019-04-26T17:47:33.024Z,34.08
2019-04-26T17:50:06.124Z,39.33
2019-04-26T17:52:37.628Z,34.73
2019-04-26T17:55:11.935Z,36.03
2019-04-26T17:57:48.432Z,38.50
2019-04-26T18:00:22.305Z,38.28
2019-04-26T18:02:52.755Z,37.03
2019-04-26T18:05:41.689Z,39.10
2019-04-26T18:07:59.703Z,36.73
2019-04-26T18:10:35.626Z,38.23
2019-04-26T18:13:05.158Z,49.00
2019-04-26T18:15:40.011Z,60.00
2019-04-26T18:18:18.962Z,47.50
2019-04-26T18:20:55.661Z,57.93
2019-04-26T18:23:30.323Z,51.33
2019-04-26T18:26:03.128Z,55.23
2019-04-26T18:28:34.526Z,54.88
2019-04-26T18:31:09.150Z,56.92
2019-04-26T18:33:42.582Z,39.65
2019-04-26T18:36:14.207Z,45.03
2019-04-26T18:38:48.689Z,55.23
2019-04-26T18:41:23.106Z,50.08
2019-04-26T18:43:54.155Z,61.53
2019-04-26T18:46:31.850Z,61.23
2019-04-26T18:49:04.467Z,53.20
2019-04-26T18:51:36.337Z,54.60
2019-04-26T18:54:14.560Z,60.08
2019-04-26T18:56:48.050Z,59.05
2019-04-26T18:59:19.917Z,54.90
2019-04-26T19:01:53.474Z,58.00
2019-04-26T19:04:25.284Z,60.90
2019-04-26T19:06:57.331Z,61.83
2019-04-26T19:09:31.083Z,57.55
2019-04-26T19:12:03.048Z,49.95
2019-04-26T19:15:03.078Z,52.85
2019-04-26T19:17:33.843Z,56.80
2019-04-26T19:20:11.542Z,56.08
2019-04-26T19:22:46.569Z,53.08
2019-04-26T19:25:22.989Z,55.80
2019-04-26T19:27:54.030Z,48.92
2019-04-26T19:30:25.857Z,54.95
2019-04-26T19:32:57.658Z,56.85
2019-04-26T19:35:29.396Z,61.90
2019-04-26T19:38:03.281Z,66.45
2019-04-26T19:40:35.289Z,68.85
2019-04-26T19:43:09.225Z,74.55
2019-04-26T19:45:48.442Z,73.28
2019-04-26T19:48:22.763Z,79.65
2019-04-26T19:50:57.160Z,63.58
2019-04-26T19:53:32.216Z,72.23
2019-04-26T19:56:17.355Z,73.62
2019-04-26T19:58:57.287Z,66.25
2019-04-26T20:01:24.986Z,64.87
2019-04-26T20:03:56.861Z,60.43
2019-04-26T20:06:29.032Z,62.05
2019-04-26T20:09:01.927Z,60.40
2019-04-26T20:11:35.321Z,56.98
2019-04-26T20:14:07.112Z,67.92
2019-04-26T20:16:59.336Z,63.28
2019-04-26T20:19:36.579Z,64.40
2019-04-26T20:22:04.885Z,55.17
2019-04-26T20:24:36.849Z,65.15
2019-04-26T20:27:08.513Z,62.60
2019-04-26T20:29:47.114Z,63.33
2019-04-26T20:32:21.225Z,53.52
2019-04-26T20:34:51.898Z,58.60
2019-04-26T20:37:25.820Z,57.10
2019-04-26T20:40:16.235Z,60.28
2019-04-26T20:42:31.608Z,56.63
2019-04-26T20:45:04.416Z,62.40
2019-04-26T20:47:36.978Z,60.88
2019-04-26T20:50:09.328Z,56.60
2019-04-26T20:52:41.505Z,61.53
2019-04-26T20:55:13.794Z,56.02
2019-04-26T20:57:45.631Z,59.50
2019-04-26T21:00:17.802Z,66.07
2019-04-26T21:02:54.161Z,73.28
2019-04-26T21:05:23.856Z,72.65
2019-04-26T21:07:55.563Z,65.92
2019-04-26T21:10:27.408Z,72.25
2019-04-26T21:12:59.072Z,66.92
2019-04-26T21:15:32.118Z,69.75
2019-04-26T21:18:04.288Z,68.10
2019-04-26T21:20:36.665Z,59.00
2019-04-26T21:23:08.347Z,59.90
2019-04-26T21:26:02.763Z,57.50
2019-04-26T21:28:54.284Z,60.52
2019-04-26T21:31:30.752Z,56.95
2019-04-26T21:34:07.926Z,43.48
2019-04-26T21:36:55.288Z,60.33
2019-04-26T21:39:35.622Z,56.73
2019-04-26T21:42:10.444Z,44.77
2019-04-26T21:44:44.689Z,53.28
2019-04-26T21:47:16.336Z,51.98
2019-04-26T21:49:53.983Z,53.30
2019-04-26T21:52:28.003Z,54.10
2019-04-26T21:54:56.501Z,56.67
2019-04-26T21:57:28.445Z,51.85
2019-04-26T22:00:00.138Z,55.38
2019-04-26T22:02:34.886Z,54.77
2019-04-26T22:05:07.956Z,50.20
2019-04-26T22:07:44.694Z,49.88
2019-04-26T22:10:18.675Z,47.65
2019-04-26T22:12:50.747Z,53.52
2019-04-26T22:15:24.141Z,47.17
2019-04-26T22:17:57.721Z,51.18
2019-04-26T22:20:30.930Z,66.07
2019-04-26T22:23:04.641Z,60.73
2019-04-26T22:25:38.349Z,65.62
2019-04-26T22:28:10.216Z,60.33
2019-04-26T22:30:42.181Z,58.05
2019-04-26T22:33:14.235Z,61.25
2019-04-26T22:35:46.212Z,58.10
2019-04-26T22:38:23.764Z,63.95
2019-04-26T22:40:54.722Z,56.35
2019-04-26T22:43:41.653Z,56.63
2019-04-26T22:46:19.182Z,72.55
2019-04-26T22:48:54.661Z,67.47
2019-04-26T22:51:28.511Z,67.32
2019-04-26T22:54:02.601Z,63.02
2019-04-26T22:56:36.945Z,64.07
2019-04-26T22:59:07.935Z,55.70
2019-04-26T23:01:47.092Z,52.67
2019-04-26T23:04:16.170Z,51.53
2019-04-26T23:06:48.137Z,55.98
2019-04-26T23:09:20.966Z,51.92
2019-04-26T23:12:06.346Z,58.83
2019-04-26T23:14:58.501Z,58.80
2019-04-26T23:17:47.958Z,52.53
2019-04-26T23:20:37.598Z,60.17
2019-04-26T23:23:08.635Z,52.13
2019-04-26T23:25:40.343Z,52.33
2019-04-26T23:28:12.125Z,57.17
2019-04-26T23:30:44.240Z,57.33
2019-04-26T23:33:15.925Z,58.92
2019-04-26T23:35:47.953Z,55.78
2019-04-26T23:38:19.647Z,57.17
2019-04-26T23:40:51.820Z,59.50
2019-04-26T23:43:25.561Z,51.68
2019-04-26T23:45:57.201Z,51.77
2019-04-26T23:48:28.845Z,65.50
2019-04-26T23:51:04.816Z,54.67
2019-04-26T23:53:35.927Z,54.67
2019-04-26T23:56:07.311Z,51.70
2019-04-26T23:58:40.298Z,44.38
